Bavaria

Jump to table bottom
Date/Time Temp deg F RH % Wind MPH Wind Max Wind Dir Snow 24hr inches Snow Depth inches
04/15/17 13:00 18.1 58 10 19 SW - 235 6.9 145.3
04/15/17 12:00 16.8 56 6 13 SW - 223 7.3 145.3
04/15/17 11:00 14.8 81 8 15 SW - 215 6.5 145.3
04/15/17 10:00 12.2 84 8 13 S - 201 7.8 145.3
04/15/17 09:00 10.3 84 12 20 W - 268 36.6 -16.3
04/15/17 08:00 9.4 85 14 19 SW - 242 7.1 -15.9
04/15/17 07:00 8.2 85 13 19 W - 253 7.9 -16.0
04/15/17 06:00 9.1 86 9 15 SW - 217 8.0 -16.4
04/15/17 05:00 10.1 86 12 19 SW - 214 7.3 -16.3
04/15/17 04:00 10.6 86 12 21 NW - 324 8.2 -16.5
04/15/17 03:00 11.5 87 15 22 SW - 232 7.4 -16.8
04/15/17 02:00 12.9 88 15 22 SW - 224 36.6 -17.0
04/15/17 01:00 13.3 88 19 28 NW - 293 8.3 -16.8
04/15/17 00:00 13.9 88 20 30 SW - 247 6.5 -17.2
04/14/17 23:00 15.7 88 11 22 W - 260 5.0 -17.6
04/14/17 22:00 16.1 89 14 24 W - 260 36.6 -17.6
04/14/17 21:00 16.9 86 14 25 SW - 243 4.2 -17.7
04/14/17 20:00 18.0 86 14 21 SW - 241 3.6 -18.0
04/14/17 19:00 19.6 81 11 20 W - 257 1.8 -18.5
04/14/17 18:00 21.1 81 11 17 S - 189 1.5 -19.2
04/14/17 17:00 20.0 86 11 18 SW - 242 0.4 145.3
04/14/17 16:00 25.4 74 7 12 SW - 239 0.2 145.3
04/14/17 15:00 26.8 73 7 13 SW - 223 -0.1 145.3
04/14/17 14:00 27.0 61 8 13 W - 255 4.7 145.3
04/14/17 13:00 20.8 76 9 15 SW - 242 4.4 145.3
04/14/17 12:00 22.8 71 8 13 SW - 236 5.0 145.3
04/14/17 11:00 20.3 85 5 10 SW - 233 5.8 145.3
04/14/17 10:00 19.5 88 7 13 W - 266 5.0 145.3
04/14/17 09:00 18.1 88 6 13 SW - 237 4.9 -18.1
04/14/17 08:00 17.5 89 10 19 W - 277 6.7 -17.8
04/14/17 07:00 17.1 89 18 25 W - 254 36.6 80.6
04/14/17 06:00 18.3 90 12 24 NW - 295 5.5 80.4
04/14/17 05:00 20.5 88 19 28 W - 258 5.6 80.4
04/14/17 04:00 21.3 91 9 19 SW - 210 2.9 79.6
04/14/17 03:00 22.0 90 10 16 SW - 245 2.5 78.8
04/14/17 02:00 21.2 90 15 19 NW - 293 2.2 79.9
04/14/17 01:00 21.3 91 10 16 W - 281 1.7 79.5
04/14/17 00:00 24.2 90 8 13 SW - 246 1.5 -35.6
.